sensor_id;sensor_type;location;lat;lon;timestamp;temperature;humidity
43049;DHT22;28673;44.412;11.918;2023-08-07T00:01:22;20.70;93.80
43049;DHT22;28673;44.412;11.918;2023-08-07T00:03:48;20.60;94.00
43049;DHT22;28673;44.412;11.918;2023-08-07T00:06:14;20.60;94.20
43049;DHT22;28673;44.412;11.918;2023-08-07T00:08:47;20.50;94.50
43049;DHT22;28673;44.412;11.918;2023-08-07T00:11:13;20.50;94.60
43049;DHT22;28673;44.412;11.918;2023-08-07T00:13:39;20.50;94.90
43049;DHT22;28673;44.412;11.918;2023-08-07T00:16:05;20.50;95.10
43049;DHT22;28673;44.412;11.918;2023-08-07T00:18:31;20.40;95.20
43049;DHT22;28673;44.412;11.918;2023-08-07T00:20:57;20.40;95.30
43049;DHT22;28673;44.412;11.918;2023-08-07T00:23:23;20.40;96.00
43049;DHT22;28673;44.412;11.918;2023-08-07T00:25:49;20.30;96.00
43049;DHT22;28673;44.412;11.918;2023-08-07T00:28:15;20.30;96.10
43049;DHT22;28673;44.412;11.918;2023-08-07T00:30:41;20.20;96.80
43049;DHT22;28673;44.412;11.918;2023-08-07T00:33:07;20.20;97.00
43049;DHT22;28673;44.412;11.918;2023-08-07T00:35:33;20.20;97.10
43049;DHT22;28673;44.412;11.918;2023-08-07T00:37:59;20.10;97.60
43049;DHT22;28673;44.412;11.918;2023-08-07T00:40:28;20.10;97.70
43049;DHT22;28673;44.412;11.918;2023-08-07T00:43:01;20.00;98.20
43049;DHT22;28673;44.412;11.918;2023-08-07T00:45:27;20.00;98.50
43049;DHT22;28673;44.412;11.918;2023-08-07T00:48:00;19.90;98.50
43049;DHT22;28673;44.412;11.918;2023-08-07T00:50:29;19.90;99.40
43049;DHT22;28673;44.412;11.918;2023-08-07T00:52:58;19.90;99.10
43049;DHT22;28673;44.412;11.918;2023-08-07T00:55:24;19.90;99.10
43049;DHT22;28673;44.412;11.918;2023-08-07T00:57:50;19.90;99.20
43049;DHT22;28673;44.412;11.918;2023-08-07T01:00:16;19.80;99.30
43049;DHT22;28673;44.412;11.918;2023-08-07T01:02:43;19.90;99.50
43049;DHT22;28673;44.412;11.918;2023-08-07T01:05:09;19.80;99.60
43049;DHT22;28673;44.412;11.918;2023-08-07T01:07:40;19.80;99.70
43049;DHT22;28673;44.412;11.918;2023-08-07T01:10:07;19.80;99.90
43049;DHT22;28673;44.412;11.918;2023-08-07T01:12:52;19.70;99.90
43049;DHT22;28673;44.412;11.918;2023-08-07T01:15:26;19.70;99.90
43049;DHT22;28673;44.412;11.918;2023-08-07T01:17:56;19.70;99.90
43049;DHT22;28673;44.412;11.918;2023-08-07T01:20:22;19.70;99.90
43049;DHT22;28673;44.412;11.918;2023-08-07T01:22:47;19.60;99.90
43049;DHT22;28673;44.412;11.918;2023-08-07T01:25:13;19.60;99.90
43049;DHT22;28673;44.412;11.918;2023-08-07T01:30:35;19.60;99.90
43049;DHT22;28673;44.412;11.918;2023-08-07T01:33:21;19.50;99.90
43049;DHT22;28673;44.412;11.918;2023-08-07T01:35:52;19.50;99.90
43049;DHT22;28673;44.412;11.918;2023-08-07T01:38:20;19.40;99.90
43049;DHT22;28673;44.412;11.918;2023-08-07T01:40:48;19.40;99.90
43049;DHT22;28673;44.412;11.918;2023-08-07T01:43:14;19.40;99.90
43049;DHT22;28673;44.412;11.918;2023-08-07T01:45:40;19.40;99.90
43049;DHT22;28673;44.412;11.918;2023-08-07T01:48:07;19.40;99.90
43049;DHT22;28673;44.412;11.918;2023-08-07T01:50:34;19.30;99.90
43049;DHT22;28673;44.412;11.918;2023-08-07T01:53:00;19.30;99.90
43049;DHT22;28673;44.412;11.918;2023-08-07T01:55:28;19.20;99.90
43049;DHT22;28673;44.412;11.918;2023-08-07T01:57:53;19.20;99.90
43049;DHT22;28673;44.412;11.918;2023-08-07T02:00:20;19.20;99.90
43049;DHT22;28673;44.412;11.918;2023-08-07T02:02:46;19.20;99.90
43049;DHT22;28673;44.412;11.918;2023-08-07T02:05:13;19.10;99.90
43049;DHT22;28673;44.412;11.918;2023-08-07T02:07:40;19.10;99.90
43049;DHT22;28673;44.412;11.918;2023-08-07T02:10:06;19.10;99.90
43049;DHT22;28673;44.412;11.918;2023-08-07T02:12:32;19.10;99.90
43049;DHT22;28673;44.412;11.918;2023-08-07T02:15:01;19.10;99.90
43049;DHT22;28673;44.412;11.918;2023-08-07T02:17:28;19.10;99.90
43049;DHT22;28673;44.412;11.918;2023-08-07T02:19:58;19.10;99.90
43049;DHT22;28673;44.412;11.918;2023-08-07T02:22:25;19.10;99.90
43049;DHT22;28673;44.412;11.918;2023-08-07T02:24:50;19.10;99.90
43049;DHT22;28673;44.412;11.918;2023-08-07T02:27:16;19.00;99.90
43049;DHT22;28673;44.412;11.918;2023-08-07T02:29:42;19.00;99.90
43049;DHT22;28673;44.412;11.918;2023-08-07T02:32:08;19.00;99.90
43049;DHT22;28673;44.412;11.918;2023-08-07T02:34:34;19.00;99.90
43049;DHT22;28673;44.412;11.918;2023-08-07T02:37:00;19.00;99.90
43049;DHT22;28673;44.412;11.918;2023-08-07T02:39:26;19.00;99.90
43049;DHT22;28673;44.412;11.918;2023-08-07T02:41:51;19.10;99.90
43049;DHT22;28673;44.412;11.918;2023-08-07T02:44:18;19.10;99.90
43049;DHT22;28673;44.412;11.918;2023-08-07T02:46:45;19.10;99.90
43049;DHT22;28673;44.412;11.918;2023-08-07T02:49:11;19.10;99.90
43049;DHT22;28673;44.412;11.918;2023-08-07T02:51:37;19.20;99.90
43049;DHT22;28673;44.412;11.918;2023-08-07T02:54:03;19.20;99.90
43049;DHT22;28673;44.412;11.918;2023-08-07T02:56:29;19.20;99.90
43049;DHT22;28673;44.412;11.918;2023-08-07T02:58:55;19.20;99.90
43049;DHT22;28673;44.412;11.918;2023-08-07T03:01:24;19.20;99.90
43049;DHT22;28673;44.412;11.918;2023-08-07T03:03:50;19.20;99.90
43049;DHT22;28673;44.412;11.918;2023-08-07T03:06:15;19.30;99.90
43049;DHT22;28673;44.412;11.918;2023-08-07T03:08:41;19.30;99.90
43049;DHT22;28673;44.412;11.918;2023-08-07T03:11:08;19.30;99.90
43049;DHT22;28673;44.412;11.918;2023-08-07T03:13:34;19.30;99.90
43049;DHT22;28673;44.412;11.918;2023-08-07T03:16:01;19.30;99.90
43049;DHT22;28673;44.412;11.918;2023-08-07T03:18:28;19.30;99.90
43049;DHT22;28673;44.412;11.918;2023-08-07T03:20:58;19.40;99.90
43049;DHT22;28673;44.412;11.918;2023-08-07T03:23:25;19.40;99.90
43049;DHT22;28673;44.412;11.918;2023-08-07T03:26:10;19.40;99.90
43049;DHT22;28673;44.412;11.918;2023-08-07T03:28:38;19.30;99.90
43049;DHT22;28673;44.412;11.918;2023-08-07T03:31:04;19.30;99.90
43049;DHT22;28673;44.412;11.918;2023-08-07T03:33:32;19.30;99.90
43049;DHT22;28673;44.412;11.918;2023-08-07T03:35:58;19.30;99.90
43049;DHT22;28673;44.412;11.918;2023-08-07T03:38:24;19.30;99.90
43049;DHT22;28673;44.412;11.918;2023-08-07T03:40:52;19.30;99.90
43049;DHT22;28673;44.412;11.918;2023-08-07T03:43:18;19.30;99.90
43049;DHT22;28673;44.412;11.918;2023-08-07T03:45:44;19.30;99.90
43049;DHT22;28673;44.412;11.918;2023-08-07T03:48:10;19.30;99.90
43049;DHT22;28673;44.412;11.918;2023-08-07T03:50:36;19.30;99.90
43049;DHT22;28673;44.412;11.918;2023-08-07T03:53:05;19.30;99.90
43049;DHT22;28673;44.412;11.918;2023-08-07T03:55:36;19.30;99.90
43049;DHT22;28673;44.412;11.918;2023-08-07T03:58:02;19.30;99.90
43049;DHT22;28673;44.412;11.918;2023-08-07T04:00:28;19.30;99.90
43049;DHT22;28673;44.412;11.918;2023-08-07T04:02:54;19.30;99.90
43049;DHT22;28673;44.412;11.918;2023-08-07T04:05:21;19.20;99.90
43049;DHT22;28673;44.412;11.918;2023-08-07T04:07:46;19.20;99.90
43049;DHT22;28673;44.412;11.918;2023-08-07T04:10:12;19.20;99.90
43049;DHT22;28673;44.412;11.918;2023-08-07T04:12:38;19.20;99.90
43049;DHT22;28673;44.412;11.918;2023-08-07T04:15:05;19.10;99.90
43049;DHT22;28673;44.412;11.918;2023-08-07T04:17:32;19.10;99.90
43049;DHT22;28673;44.412;11.918;2023-08-07T04:19:58;19.10;99.90
43049;DHT22;28673;44.412;11.918;2023-08-07T04:22:24;19.10;99.90
43049;DHT22;28673;44.412;11.918;2023-08-07T04:24:50;19.10;99.90
43049;DHT22;28673;44.412;11.918;2023-08-07T04:27:15;19.10;99.90
43049;DHT22;28673;44.412;11.918;2023-08-07T04:29:41;19.10;99.90
43049;DHT22;28673;44.412;11.918;2023-08-07T04:32:07;19.10;99.90
43049;DHT22;28673;44.412;11.918;2023-08-07T04:34:34;19.10;99.90
43049;DHT22;28673;44.412;11.918;2023-08-07T04:37:01;19.10;99.90
43049;DHT22;28673;44.412;11.918;2023-08-07T04:39:27;19.10;99.90
43049;DHT22;28673;44.412;11.918;2023-08-07T04:41:53;19.10;99.90
43049;DHT22;28673;44.412;11.918;2023-08-07T04:44:18;19.10;99.90
43049;DHT22;28673;44.412;11.918;2023-08-07T04:46:44;19.10;99.90
43049;DHT22;28673;44.412;11.918;2023-08-07T04:49:10;19.10;99.90
43049;DHT22;28673;44.412;11.918;2023-08-07T04:51:36;19.10;99.90
43049;DHT22;28673;44.412;11.918;2023-08-07T04:54:02;19.20;99.90
43049;DHT22;28673;44.412;11.918;2023-08-07T04:56:28;19.20;99.90
43049;DHT22;28673;44.412;11.918;2023-08-07T04:58:54;19.20;99.90
43049;DHT22;28673;44.412;11.918;2023-08-07T05:01:19;19.30;99.90
43049;DHT22;28673;44.412;11.918;2023-08-07T05:03:46;19.30;99.90
43049;DHT22;28673;44.412;11.918;2023-08-07T05:06:12;19.30;99.90
43049;DHT22;28673;44.412;11.918;2023-08-07T05:08:39;19.40;99.90
43049;DHT22;28673;44.412;11.918;2023-08-07T05:11:05;19.40;99.90
43049;DHT22;28673;44.412;11.918;2023-08-07T05:13:31;19.40;99.90
43049;DHT22;28673;44.412;11.918;2023-08-07T05:15:56;19.50;99.90
43049;DHT22;28673;44.412;11.918;2023-08-07T05:18:22;19.50;99.90
43049;DHT22;28673;44.412;11.918;2023-08-07T05:20:48;19.60;99.90
43049;DHT22;28673;44.412;11.918;2023-08-07T05:23:14;19.60;99.90
43049;DHT22;28673;44.412;11.918;2023-08-07T05:25:40;19.60;99.90
43049;DHT22;28673;44.412;11.918;2023-08-07T05:28:06;19.60;99.90
43049;DHT22;28673;44.412;11.918;2023-08-07T05:30:32;19.70;99.90
43049;DHT22;28673;44.412;11.918;2023-08-07T05:32:58;19.70;99.90
43049;DHT22;28673;44.412;11.918;2023-08-07T05:35:24;19.70;99.90
43049;DHT22;28673;44.412;11.918;2023-08-07T05:37:50;19.80;99.90
43049;DHT22;28673;44.412;11.918;2023-08-07T05:40:16;19.80;99.90
43049;DHT22;28673;44.412;11.918;2023-08-07T05:42:42;19.80;99.90
43049;DHT22;28673;44.412;11.918;2023-08-07T05:45:08;19.90;99.90
43049;DHT22;28673;44.412;11.918;2023-08-07T05:47:35;19.90;99.90
43049;DHT22;28673;44.412;11.918;2023-08-07T05:50:02;20.00;99.90
43049;DHT22;28673;44.412;11.918;2023-08-07T05:52:28;20.00;99.90
43049;DHT22;28673;44.412;11.918;2023-08-07T05:54:54;20.10;99.90
43049;DHT22;28673;44.412;11.918;2023-08-07T05:57:19;20.20;99.90
43049;DHT22;28673;44.412;11.918;2023-08-07T05:59:45;20.40;99.90
43049;DHT22;28673;44.412;11.918;2023-08-07T06:02:11;20.50;99.90
43049;DHT22;28673;44.412;11.918;2023-08-07T06:04:37;20.60;99.90
43049;DHT22;28673;44.412;11.918;2023-08-07T06:07:05;20.70;99.90
43049;DHT22;28673;44.412;11.918;2023-08-07T06:09:31;20.80;99.90
43049;DHT22;28673;44.412;11.918;2023-08-07T06:11:57;20.90;99.90
43049;DHT22;28673;44.412;11.918;2023-08-07T06:14:23;21.00;99.90
43049;DHT22;28673;44.412;11.918;2023-08-07T06:16:51;21.00;99.90
43049;DHT22;28673;44.412;11.918;2023-08-07T06:19:17;21.10;99.90
43049;DHT22;28673;44.412;11.918;2023-08-07T06:21:43;21.10;99.90
43049;DHT22;28673;44.412;11.918;2023-08-07T06:24:09;21.20;99.90
43049;DHT22;28673;44.412;11.918;2023-08-07T06:26:35;21.20;99.90
43049;DHT22;28673;44.412;11.918;2023-08-07T06:29:01;21.20;99.90
43049;DHT22;28673;44.412;11.918;2023-08-07T06:31:27;21.30;99.90
43049;DHT22;28673;44.412;11.918;2023-08-07T06:33:53;21.30;99.90
43049;DHT22;28673;44.412;11.918;2023-08-07T06:36:18;21.30;99.90
43049;DHT22;28673;44.412;11.918;2023-08-07T06:38:44;21.30;99.90
43049;DHT22;28673;44.412;11.918;2023-08-07T06:41:10;21.30;99.90
43049;DHT22;28673;44.412;11.918;2023-08-07T06:43:36;21.30;99.90
43049;DHT22;28673;44.412;11.918;2023-08-07T06:46:02;21.40;99.90
43049;DHT22;28673;44.412;11.918;2023-08-07T06:48:27;21.40;99.90
43049;DHT22;28673;44.412;11.918;2023-08-07T06:50:53;21.40;99.90
43049;DHT22;28673;44.412;11.918;2023-08-07T06:53:19;21.50;99.90
43049;DHT22;28673;44.412;11.918;2023-08-07T06:55:45;21.60;99.90
43049;DHT22;28673;44.412;11.918;2023-08-07T06:58:11;21.70;99.90
43049;DHT22;28673;44.412;11.918;2023-08-07T07:00:38;21.90;99.90
43049;DHT22;28673;44.412;11.918;2023-08-07T07:03:05;22.10;99.90
43049;DHT22;28673;44.412;11.918;2023-08-07T07:05:32;22.20;99.90
43049;DHT22;28673;44.412;11.918;2023-08-07T07:07:58;22.40;99.90
43049;DHT22;28673;44.412;11.918;2023-08-07T07:10:24;22.50;99.90
43049;DHT22;28673;44.412;11.918;2023-08-07T07:12:50;22.60;99.90
43049;DHT22;28673;44.412;11.918;2023-08-07T07:15:17;22.80;99.90
43049;DHT22;28673;44.412;11.918;2023-08-07T07:17:43;23.00;99.70
43049;DHT22;28673;44.412;11.918;2023-08-07T07:20:09;23.20;99.30
43049;DHT22;28673;44.412;11.918;2023-08-07T07:22:36;23.40;98.40
43049;DHT22;28673;44.412;11.918;2023-08-07T07:25:03;23.50;97.70
43049;DHT22;28673;44.412;11.918;2023-08-07T07:27:29;23.70;97.20
43049;DHT22;28673;44.412;11.918;2023-08-07T07:29:55;23.90;96.80
43049;DHT22;28673;44.412;11.918;2023-08-07T07:32:21;23.90;96.10
43049;DHT22;28673;44.412;11.918;2023-08-07T07:34:47;24.00;95.80
43049;DHT22;28673;44.412;11.918;2023-08-07T07:37:13;24.10;95.50
43049;DHT22;28673;44.412;11.918;2023-08-07T07:39:40;24.20;95.00
43049;DHT22;28673;44.412;11.918;2023-08-07T07:42:07;24.40;94.30
43049;DHT22;28673;44.412;11.918;2023-08-07T07:44:33;24.50;93.90
43049;DHT22;28673;44.412;11.918;2023-08-07T07:47:01;24.60;92.80
43049;DHT22;28673;44.412;11.918;2023-08-07T07:49:26;24.70;92.40
43049;DHT22;28673;44.412;11.918;2023-08-07T07:51:52;24.80;91.30
43049;DHT22;28673;44.412;11.918;2023-08-07T07:54:18;24.90;91.60
43049;DHT22;28673;44.412;11.918;2023-08-07T07:56:44;25.00;91.10
43049;DHT22;28673;44.412;11.918;2023-08-07T07:59:13;25.20;90.40
43049;DHT22;28673;44.412;11.918;2023-08-07T08:01:39;25.30;87.80
43049;DHT22;28673;44.412;11.918;2023-08-07T08:04:05;25.40;85.90
43049;DHT22;28673;44.412;11.918;2023-08-07T08:06:32;25.50;84.70
43049;DHT22;28673;44.412;11.918;2023-08-07T08:08:58;25.70;83.50
43049;DHT22;28673;44.412;11.918;2023-08-07T08:11:25;25.90;82.70
43049;DHT22;28673;44.412;11.918;2023-08-07T08:13:50;26.00;81.70
43049;DHT22;28673;44.412;11.918;2023-08-07T08:16:16;26.30;81.00
43049;DHT22;28673;44.412;11.918;2023-08-07T08:18:42;26.50;80.00
43049;DHT22;28673;44.412;11.918;2023-08-07T08:21:08;26.70;79.00
43049;DHT22;28673;44.412;11.918;2023-08-07T08:23:34;26.80;73.60
43049;DHT22;28673;44.412;11.918;2023-08-07T08:26:01;26.90;77.00
43049;DHT22;28673;44.412;11.918;2023-08-07T08:28:27;27.10;73.90
43049;DHT22;28673;44.412;11.918;2023-08-07T08:30:52;27.20;76.40
43049;DHT22;28673;44.412;11.918;2023-08-07T08:33:18;27.40;75.00
43049;DHT22;28673;44.412;11.918;2023-08-07T08:35:44;27.60;74.80
43049;DHT22;28673;44.412;11.918;2023-08-07T08:38:10;27.90;74.80
43049;DHT22;28673;44.412;11.918;2023-08-07T08:40:38;28.00;72.80
43049;DHT22;28673;44.412;11.918;2023-08-07T08:43:06;28.20;73.80
43049;DHT22;28673;44.412;11.918;2023-08-07T08:45:32;28.40;73.90
43049;DHT22;28673;44.412;11.918;2023-08-07T08:48:02;28.60;73.50
43049;DHT22;28673;44.412;11.918;2023-08-07T08:50:29;28.90;73.30
43049;DHT22;28673;44.412;11.918;2023-08-07T08:52:56;29.10;73.50
43049;DHT22;28673;44.412;11.918;2023-08-07T08:55:23;29.30;72.80
43049;DHT22;28673;44.412;11.918;2023-08-07T08:57:49;29.60;72.90
43049;DHT22;28673;44.412;11.918;2023-08-07T09:00:19;29.70;72.60
43049;DHT22;28673;44.412;11.918;2023-08-07T09:02:48;30.00;72.40
43049;DHT22;28673;44.412;11.918;2023-08-07T09:05:15;30.00;72.50
43049;DHT22;28673;44.412;11.918;2023-08-07T09:07:42;30.20;71.60
43049;DHT22;28673;44.412;11.918;2023-08-07T09:10:09;30.40;73.00
43049;DHT22;28673;44.412;11.918;2023-08-07T09:12:38;30.60;72.90
43049;DHT22;28673;44.412;11.918;2023-08-07T09:15:07;30.90;72.60
43049;DHT22;28673;44.412;11.918;2023-08-07T09:17:36;31.10;72.90
43049;DHT22;28673;44.412;11.918;2023-08-07T09:20:04;31.30;72.90
43049;DHT22;28673;44.412;11.918;2023-08-07T09:22:32;31.50;72.70
43049;DHT22;28673;44.412;11.918;2023-08-07T09:24:58;31.80;72.60
43049;DHT22;28673;44.412;11.918;2023-08-07T09:27:25;31.90;71.90
43049;DHT22;28673;44.412;11.918;2023-08-07T09:29:51;31.90;71.60
43049;DHT22;28673;44.412;11.918;2023-08-07T09:32:19;31.90;70.50
43049;DHT22;28673;44.412;11.918;2023-08-07T09:34:49;31.80;71.10
43049;DHT22;28673;44.412;11.918;2023-08-07T09:37:15;31.90;71.50
43049;DHT22;28673;44.412;11.918;2023-08-07T09:39:41;32.10;71.80
43049;DHT22;28673;44.412;11.918;2023-08-07T09:42:16;32.40;71.50
43049;DHT22;28673;44.412;11.918;2023-08-07T09:44:43;32.60;70.70
43049;DHT22;28673;44.412;11.918;2023-08-07T09:47:16;32.90;71.00
43049;DHT22;28673;44.412;11.918;2023-08-07T09:49:42;33.10;70.10
43049;DHT22;28673;44.412;11.918;2023-08-07T09:52:10;33.20;69.90
43049;DHT22;28673;44.412;11.918;2023-08-07T09:54:37;33.30;69.40
43049;DHT22;28673;44.412;11.918;2023-08-07T09:57:04;33.60;69.00
43049;DHT22;28673;44.412;11.918;2023-08-07T09:59:32;33.70;68.30
43049;DHT22;28673;44.412;11.918;2023-08-07T10:02:00;33.90;67.60
43049;DHT22;28673;44.412;11.918;2023-08-07T10:04:27;34.00;67.00
43049;DHT22;28673;44.412;11.918;2023-08-07T10:06:53;34.10;66.60
43049;DHT22;28673;44.412;11.918;2023-08-07T10:09:20;34.30;66.20
43049;DHT22;28673;44.412;11.918;2023-08-07T10:11:46;34.40;65.70
43049;DHT22;28673;44.412;11.918;2023-08-07T10:14:14;34.70;65.10
43049;DHT22;28673;44.412;11.918;2023-08-07T10:16:40;34.80;64.60
43049;DHT22;28673;44.412;11.918;2023-08-07T10:19:07;34.80;63.60
43049;DHT22;28673;44.412;11.918;2023-08-07T10:21:36;34.90;62.30
43049;DHT22;28673;44.412;11.918;2023-08-07T10:24:04;35.10;62.70
43049;DHT22;28673;44.412;11.918;2023-08-07T10:26:35;35.20;62.60
43049;DHT22;28673;44.412;11.918;2023-08-07T10:29:07;35.40;62.20
43049;DHT22;28673;44.412;11.918;2023-08-07T10:31:36;35.50;60.60
43049;DHT22;28673;44.412;11.918;2023-08-07T10:34:03;35.40;61.60
43049;DHT22;28673;44.412;11.918;2023-08-07T10:36:33;35.60;61.90
43049;DHT22;28673;44.412;11.918;2023-08-07T10:39:11;35.70;61.00
43049;DHT22;28673;44.412;11.918;2023-08-07T10:41:55;35.70;60.20
43049;DHT22;28673;44.412;11.918;2023-08-07T10:44:26;35.90;59.00
43049;DHT22;28673;44.412;11.918;2023-08-07T10:46:54;35.80;59.80
43049;DHT22;28673;44.412;11.918;2023-08-07T10:49:41;35.80;59.90
43049;DHT22;28673;44.412;11.918;2023-08-07T10:52:12;36.00;59.50
43049;DHT22;28673;44.412;11.918;2023-08-07T10:54:45;36.20;59.20
43049;DHT22;28673;44.412;11.918;2023-08-07T10:57:12;36.20;58.40
43049;DHT22;28673;44.412;11.918;2023-08-07T10:59:55;36.20;58.40
43049;DHT22;28673;44.412;11.918;2023-08-07T11:02:30;36.30;57.60
43049;DHT22;28673;44.412;11.918;2023-08-07T11:04:56;36.40;57.90
43049;DHT22;28673;44.412;11.918;2023-08-07T11:07:27;36.40;58.20
43049;DHT22;28673;44.412;11.918;2023-08-07T11:09:54;36.50;58.10
43049;DHT22;28673;44.412;11.918;2023-08-07T11:12:20;36.70;58.10
43049;DHT22;28673;44.412;11.918;2023-08-07T11:14:53;36.80;57.00
43049;DHT22;28673;44.412;11.918;2023-08-07T11:17:25;37.00;54.50
43049;DHT22;28673;44.412;11.918;2023-08-07T11:19:51;37.10;56.50
43049;DHT22;28673;44.412;11.918;2023-08-07T11:22:17;37.10;56.20
43049;DHT22;28673;44.412;11.918;2023-08-07T11:24:43;37.20;56.60
43049;DHT22;28673;44.412;11.918;2023-08-07T11:27:09;37.30;56.10
43049;DHT22;28673;44.412;11.918;2023-08-07T11:29:35;37.40;55.70
43049;DHT22;28673;44.412;11.918;2023-08-07T11:32:00;37.50;56.00
43049;DHT22;28673;44.412;11.918;2023-08-07T11:34:27;37.70;55.70
43049;DHT22;28673;44.412;11.918;2023-08-07T11:36:53;37.50;55.40
43049;DHT22;28673;44.412;11.918;2023-08-07T11:39:20;37.50;54.70
43049;DHT22;28673;44.412;11.918;2023-08-07T11:41:46;37.40;54.90
43049;DHT22;28673;44.412;11.918;2023-08-07T11:44:13;37.40;55.00
43049;DHT22;28673;44.412;11.918;2023-08-07T11:46:40;37.50;55.10
43049;DHT22;28673;44.412;11.918;2023-08-07T11:49:07;37.60;54.70
43049;DHT22;28673;44.412;11.918;2023-08-07T11:51:35;37.70;54.80
43049;DHT22;28673;44.412;11.918;2023-08-07T11:54:01;37.50;54.40
43049;DHT22;28673;44.412;11.918;2023-08-07T11:56:28;37.10;53.30
43049;DHT22;28673;44.412;11.918;2023-08-07T11:58:54;36.80;54.00
43049;DHT22;28673;44.412;11.918;2023-08-07T12:01:25;36.50;54.10
43049;DHT22;28673;44.412;11.918;2023-08-07T12:03:53;36.30;54.20
43049;DHT22;28673;44.412;11.918;2023-08-07T12:06:20;36.00;53.90
43049;DHT22;28673;44.412;11.918;2023-08-07T12:08:49;35.90;54.00
43049;DHT22;28673;44.412;11.918;2023-08-07T12:11:18;35.90;54.40
43049;DHT22;28673;44.412;11.918;2023-08-07T12:13:45;35.80;54.30
43049;DHT22;28673;44.412;11.918;2023-08-07T12:16:12;35.60;53.90
43049;DHT22;28673;44.412;11.918;2023-08-07T12:18:53;35.40;54.20
43049;DHT22;28673;44.412;11.918;2023-08-07T12:21:21;35.00;54.20
43049;DHT22;28673;44.412;11.918;2023-08-07T12:23:50;34.60;54.20
43049;DHT22;28673;44.412;11.918;2023-08-07T12:26:17;34.30;54.40
43049;DHT22;28673;44.412;11.918;2023-08-07T12:28:43;34.00;54.70
43049;DHT22;28673;44.412;11.918;2023-08-07T12:31:09;33.90;55.30
43049;DHT22;28673;44.412;11.918;2023-08-07T12:33:35;33.90;55.50
43049;DHT22;28673;44.412;11.918;2023-08-07T12:36:01;34.00;55.50
43049;DHT22;28673;44.412;11.918;2023-08-07T12:38:28;34.00;55.30
43049;DHT22;28673;44.412;11.918;2023-08-07T12:40:54;33.80;55.20
43049;DHT22;28673;44.412;11.918;2023-08-07T12:43:20;33.70;55.60
43049;DHT22;28673;44.412;11.918;2023-08-07T12:45:47;33.70;55.80
43049;DHT22;28673;44.412;11.918;2023-08-07T12:48:13;33.80;55.70
43049;DHT22;28673;44.412;11.918;2023-08-07T12:50:39;34.00;55.70
43049;DHT22;28673;44.412;11.918;2023-08-07T12:53:06;34.40;55.00
43049;DHT22;28673;44.412;11.918;2023-08-07T12:55:32;34.70;54.40
43049;DHT22;28673;44.412;11.918;2023-08-07T12:57:58;35.10;55.00
43049;DHT22;28673;44.412;11.918;2023-08-07T13:00:24;35.50;54.40
43049;DHT22;28673;44.412;11.918;2023-08-07T13:02:51;35.80;54.40
43049;DHT22;28673;44.412;11.918;2023-08-07T13:05:18;36.10;53.60
43049;DHT22;28673;44.412;11.918;2023-08-07T13:07:45;36.40;52.90
43049;DHT22;28673;44.412;11.918;2023-08-07T13:10:13;36.50;52.80
43049;DHT22;28673;44.412;11.918;2023-08-07T13:12:41;36.50;52.70
43049;DHT22;28673;44.412;11.918;2023-08-07T13:15:09;36.60;52.90
43049;DHT22;28673;44.412;11.918;2023-08-07T13:17:36;36.50;53.00
43049;DHT22;28673;44.412;11.918;2023-08-07T13:20:03;36.40;52.70
43049;DHT22;28673;44.412;11.918;2023-08-07T13:22:51;36.50;53.00
43049;DHT22;28673;44.412;11.918;2023-08-07T13:25:17;36.60;52.10
43049;DHT22;28673;44.412;11.918;2023-08-07T13:27:43;36.60;52.70
43049;DHT22;28673;44.412;11.918;2023-08-07T13:30:10;36.60;52.60
43049;DHT22;28673;44.412;11.918;2023-08-07T13:32:36;36.30;52.10
43049;DHT22;28673;44.412;11.918;2023-08-07T13:35:03;36.00;52.20
43049;DHT22;28673;44.412;11.918;2023-08-07T13:37:29;35.90;52.40
43049;DHT22;28673;44.412;11.918;2023-08-07T13:39:55;35.90;52.50
43049;DHT22;28673;44.412;11.918;2023-08-07T13:42:24;36.00;51.30
43049;DHT22;28673;44.412;11.918;2023-08-07T13:44:52;36.30;51.40
43049;DHT22;28673;44.412;11.918;2023-08-07T13:47:17;36.50;50.60
43049;DHT22;28673;44.412;11.918;2023-08-07T13:49:46;36.60;50.20
43049;DHT22;28673;44.412;11.918;2023-08-07T13:52:12;36.60;49.50
43049;DHT22;28673;44.412;11.918;2023-08-07T13:54:38;36.60;49.50
43049;DHT22;28673;44.412;11.918;2023-08-07T13:57:04;36.50;48.90
43049;DHT22;28673;44.412;11.918;2023-08-07T13:59:30;36.30;48.00
43049;DHT22;28673;44.412;11.918;2023-08-07T14:01:56;36.00;48.50
43049;DHT22;28673;44.412;11.918;2023-08-07T14:04:22;36.00;48.80
43049;DHT22;28673;44.412;11.918;2023-08-07T14:06:48;36.20;49.10
43049;DHT22;28673;44.412;11.918;2023-08-07T14:09:14;36.30;48.70
43049;DHT22;28673;44.412;11.918;2023-08-07T14:11:40;36.40;48.60
43049;DHT22;28673;44.412;11.918;2023-08-07T14:14:06;36.60;46.60
43049;DHT22;28673;44.412;11.918;2023-08-07T14:16:32;36.60;46.80
43049;DHT22;28673;44.412;11.918;2023-08-07T14:18:58;36.60;47.90
43049;DHT22;28673;44.412;11.918;2023-08-07T14:21:24;36.80;48.10
43049;DHT22;28673;44.412;11.918;2023-08-07T14:23:50;36.90;48.20
43049;DHT22;28673;44.412;11.918;2023-08-07T14:26:16;37.00;46.90
43049;DHT22;28673;44.412;11.918;2023-08-07T14:28:43;37.00;47.70
43049;DHT22;28673;44.412;11.918;2023-08-07T14:31:09;37.00;47.70
43049;DHT22;28673;44.412;11.918;2023-08-07T14:33:37;36.90;47.10
43049;DHT22;28673;44.412;11.918;2023-08-07T14:36:03;36.80;46.20
43049;DHT22;28673;44.412;11.918;2023-08-07T14:38:29;36.90;46.70
43049;DHT22;28673;44.412;11.918;2023-08-07T14:40:56;37.00;47.00
43049;DHT22;28673;44.412;11.918;2023-08-07T14:43:22;37.00;46.40
43049;DHT22;28673;44.412;11.918;2023-08-07T14:45:49;37.10;46.30
43049;DHT22;28673;44.412;11.918;2023-08-07T14:48:15;37.20;46.60
43049;DHT22;28673;44.412;11.918;2023-08-07T14:50:42;37.20;45.90
43049;DHT22;28673;44.412;11.918;2023-08-07T14:53:07;37.30;46.10
43049;DHT22;28673;44.412;11.918;2023-08-07T14:55:33;37.40;46.10
43049;DHT22;28673;44.412;11.918;2023-08-07T14:57:59;37.50;46.00
43049;DHT22;28673;44.412;11.918;2023-08-07T15:00:25;37.60;46.10
43049;DHT22;28673;44.412;11.918;2023-08-07T15:02:51;37.60;46.70
43049;DHT22;28673;44.412;11.918;2023-08-07T15:05:17;37.70;45.90
43049;DHT22;28673;44.412;11.918;2023-08-07T15:07:43;37.60;45.10
43049;DHT22;28673;44.412;11.918;2023-08-07T15:10:09;37.60;45.50
43049;DHT22;28673;44.412;11.918;2023-08-07T15:12:34;37.60;45.60
43049;DHT22;28673;44.412;11.918;2023-08-07T15:15:01;37.60;45.30
43049;DHT22;28673;44.412;11.918;2023-08-07T15:17:27;37.60;45.50